sensor_id;sensor_type;location;lat;lon;timestamp;temperature;humidity
56725;DHT22;42608;52.776;6.968;2022-10-24T00:01:30;15.30;99.90
56725;DHT22;42608;52.776;6.968;2022-10-24T00:03:56;15.30;99.90
56725;DHT22;42608;52.776;6.968;2022-10-24T00:06:21;15.30;99.90
56725;DHT22;42608;52.776;6.968;2022-10-24T00:08:47;15.40;99.90
56725;DHT22;42608;52.776;6.968;2022-10-24T00:11:14;15.30;99.90
56725;DHT22;42608;52.776;6.968;2022-10-24T00:13:41;15.40;99.90
56725;DHT22;42608;52.776;6.968;2022-10-24T00:16:07;15.40;99.90
56725;DHT22;42608;52.776;6.968;2022-10-24T00:18:32;15.40;99.90
56725;DHT22;42608;52.776;6.968;2022-10-24T00:20:58;15.40;99.90
56725;DHT22;42608;52.776;6.968;2022-10-24T00:23:23;15.40;99.90
56725;DHT22;42608;52.776;6.968;2022-10-24T00:25:49;15.40;99.90
56725;DHT22;42608;52.776;6.968;2022-10-24T00:28:15;15.30;99.90
56725;DHT22;42608;52.776;6.968;2022-10-24T00:30:40;15.30;99.90
56725;DHT22;42608;52.776;6.968;2022-10-24T00:33:06;15.30;99.90
56725;DHT22;42608;52.776;6.968;2022-10-24T00:35:31;15.30;99.90
56725;DHT22;42608;52.776;6.968;2022-10-24T00:37:57;15.20;99.90
56725;DHT22;42608;52.776;6.968;2022-10-24T00:40:22;15.20;99.90
56725;DHT22;42608;52.776;6.968;2022-10-24T00:42:48;15.20;99.90
56725;DHT22;42608;52.776;6.968;2022-10-24T00:47:58;15.20;99.90
56725;DHT22;42608;52.776;6.968;2022-10-24T00:50:24;15.10;99.90
56725;DHT22;42608;52.776;6.968;2022-10-24T00:52:49;15.10;99.90
56725;DHT22;42608;52.776;6.968;2022-10-24T00:55:15;15.10;99.90
56725;DHT22;42608;52.776;6.968;2022-10-24T00:57:48;15.10;99.90
56725;DHT22;42608;52.776;6.968;2022-10-24T01:00:16;15.10;99.90
56725;DHT22;42608;52.776;6.968;2022-10-24T01:02:42;15.10;99.90
56725;DHT22;42608;52.776;6.968;2022-10-24T01:05:09;15.00;99.90
56725;DHT22;42608;52.776;6.968;2022-10-24T01:15:09;15.10;99.90
56725;DHT22;42608;52.776;6.968;2022-10-24T01:17:44;15.00;99.90
56725;DHT22;42608;52.776;6.968;2022-10-24T01:20:21;15.10;99.90
56725;DHT22;42608;52.776;6.968;2022-10-24T01:22:58;15.10;99.90
56725;DHT22;42608;52.776;6.968;2022-10-24T01:25:39;15.10;99.90
56725;DHT22;42608;52.776;6.968;2022-10-24T01:31:11;15.20;99.90
56725;DHT22;42608;52.776;6.968;2022-10-24T01:34:00;15.20;99.90
56725;DHT22;42608;52.776;6.968;2022-10-24T01:36:38;15.20;99.90
56725;DHT22;42608;52.776;6.968;2022-10-24T01:39:08;15.20;99.90
56725;DHT22;42608;52.776;6.968;2022-10-24T01:41:36;15.20;99.90
56725;DHT22;42608;52.776;6.968;2022-10-24T01:44:12;15.20;99.90
56725;DHT22;42608;52.776;6.968;2022-10-24T01:46:40;15.20;99.90
56725;DHT22;42608;52.776;6.968;2022-10-24T01:49:09;15.20;99.90
56725;DHT22;42608;52.776;6.968;2022-10-24T01:51:36;15.10;99.90
56725;DHT22;42608;52.776;6.968;2022-10-24T01:54:04;15.10;99.90
56725;DHT22;42608;52.776;6.968;2022-10-24T01:56:30;15.10;99.90
56725;DHT22;42608;52.776;6.968;2022-10-24T01:59:05;15.10;99.90
56725;DHT22;42608;52.776;6.968;2022-10-24T02:01:31;15.00;99.90
56725;DHT22;42608;52.776;6.968;2022-10-24T02:03:59;15.00;99.90
56725;DHT22;42608;52.776;6.968;2022-10-24T02:06:29;15.00;99.90
56725;DHT22;42608;52.776;6.968;2022-10-24T02:08:56;15.00;99.90
56725;DHT22;42608;52.776;6.968;2022-10-24T02:11:23;15.00;99.90
56725;DHT22;42608;52.776;6.968;2022-10-24T02:16:20;14.90;99.90
56725;DHT22;42608;52.776;6.968;2022-10-24T02:18:46;14.90;99.90
56725;DHT22;42608;52.776;6.968;2022-10-24T02:21:15;14.90;99.90
56725;DHT22;42608;52.776;6.968;2022-10-24T02:26:16;14.90;99.90
56725;DHT22;42608;52.776;6.968;2022-10-24T02:28:45;14.90;99.90
56725;DHT22;42608;52.776;6.968;2022-10-24T02:31:14;14.90;99.90
56725;DHT22;42608;52.776;6.968;2022-10-24T02:33:41;14.90;99.90
56725;DHT22;42608;52.776;6.968;2022-10-24T02:36:08;14.90;99.90
56725;DHT22;42608;52.776;6.968;2022-10-24T02:38:36;14.80;99.90
56725;DHT22;42608;52.776;6.968;2022-10-24T02:41:05;14.80;99.90
56725;DHT22;42608;52.776;6.968;2022-10-24T02:43:31;14.80;99.90
56725;DHT22;42608;52.776;6.968;2022-10-24T02:45:57;14.80;99.90
56725;DHT22;42608;52.776;6.968;2022-10-24T02:48:25;14.70;99.90
56725;DHT22;42608;52.776;6.968;2022-10-24T02:50:52;14.80;99.90
56725;DHT22;42608;52.776;6.968;2022-10-24T02:53:18;14.70;99.90
56725;DHT22;42608;52.776;6.968;2022-10-24T02:55:44;14.70;99.90
56725;DHT22;42608;52.776;6.968;2022-10-24T02:58:10;14.70;99.90
56725;DHT22;42608;52.776;6.968;2022-10-24T03:00:35;14.70;99.90
56725;DHT22;42608;52.776;6.968;2022-10-24T03:03:01;14.70;99.90
56725;DHT22;42608;52.776;6.968;2022-10-24T03:05:26;14.70;99.90
56725;DHT22;42608;52.776;6.968;2022-10-24T03:07:52;14.70;99.90
56725;DHT22;42608;52.776;6.968;2022-10-24T03:10:18;14.70;99.90
56725;DHT22;42608;52.776;6.968;2022-10-24T03:12:43;14.60;99.90
56725;DHT22;42608;52.776;6.968;2022-10-24T03:15:09;14.60;99.90
56725;DHT22;42608;52.776;6.968;2022-10-24T03:17:34;14.60;99.90
56725;DHT22;42608;52.776;6.968;2022-10-24T03:20:00;14.60;99.90
56725;DHT22;42608;52.776;6.968;2022-10-24T03:22:26;14.60;99.90
56725;DHT22;42608;52.776;6.968;2022-10-24T03:24:51;14.60;99.90
56725;DHT22;42608;52.776;6.968;2022-10-24T03:27:17;14.60;99.90
56725;DHT22;42608;52.776;6.968;2022-10-24T03:29:42;14.60;99.90
56725;DHT22;42608;52.776;6.968;2022-10-24T03:32:08;14.60;99.90
56725;DHT22;42608;52.776;6.968;2022-10-24T03:34:34;14.60;99.90
56725;DHT22;42608;52.776;6.968;2022-10-24T03:36:59;14.60;99.90
56725;DHT22;42608;52.776;6.968;2022-10-24T03:39:25;14.60;99.90
56725;DHT22;42608;52.776;6.968;2022-10-24T03:41:50;14.60;99.90
56725;DHT22;42608;52.776;6.968;2022-10-24T03:44:16;14.60;99.90
56725;DHT22;42608;52.776;6.968;2022-10-24T03:46:41;14.60;99.90
56725;DHT22;42608;52.776;6.968;2022-10-24T03:49:07;14.60;99.90
56725;DHT22;42608;52.776;6.968;2022-10-24T03:51:32;14.70;99.90
56725;DHT22;42608;52.776;6.968;2022-10-24T03:53:58;14.70;99.90
56725;DHT22;42608;52.776;6.968;2022-10-24T03:56:23;14.80;99.90
56725;DHT22;42608;52.776;6.968;2022-10-24T03:58:49;14.80;99.90
56725;DHT22;42608;52.776;6.968;2022-10-24T04:01:15;14.90;99.90
56725;DHT22;42608;52.776;6.968;2022-10-24T04:03:45;15.00;99.90
56725;DHT22;42608;52.776;6.968;2022-10-24T04:06:12;15.00;99.90
56725;DHT22;42608;52.776;6.968;2022-10-24T04:08:38;15.10;99.90
56725;DHT22;42608;52.776;6.968;2022-10-24T04:11:04;15.10;99.90
56725;DHT22;42608;52.776;6.968;2022-10-24T04:13:30;15.20;99.90
56725;DHT22;42608;52.776;6.968;2022-10-24T04:15:55;15.30;99.90
56725;DHT22;42608;52.776;6.968;2022-10-24T04:18:21;15.30;99.90
56725;DHT22;42608;52.776;6.968;2022-10-24T04:20:46;15.30;99.90
56725;DHT22;42608;52.776;6.968;2022-10-24T04:23:12;15.30;99.90
56725;DHT22;42608;52.776;6.968;2022-10-24T04:25:38;15.40;99.90
56725;DHT22;42608;52.776;6.968;2022-10-24T04:28:07;15.40;99.90
56725;DHT22;42608;52.776;6.968;2022-10-24T04:30:32;15.40;99.90
56725;DHT22;42608;52.776;6.968;2022-10-24T04:32:58;15.40;99.90
56725;DHT22;42608;52.776;6.968;2022-10-24T04:35:24;15.30;99.90
56725;DHT22;42608;52.776;6.968;2022-10-24T04:37:50;15.40;99.90
56725;DHT22;42608;52.776;6.968;2022-10-24T04:40:15;15.40;99.90
56725;DHT22;42608;52.776;6.968;2022-10-24T04:42:41;15.40;99.90
56725;DHT22;42608;52.776;6.968;2022-10-24T04:45:07;15.30;99.90
56725;DHT22;42608;52.776;6.968;2022-10-24T04:47:32;15.30;99.90
56725;DHT22;42608;52.776;6.968;2022-10-24T04:49:58;15.30;99.90
56725;DHT22;42608;52.776;6.968;2022-10-24T04:52:23;15.30;99.90
56725;DHT22;42608;52.776;6.968;2022-10-24T04:54:49;15.30;99.90
56725;DHT22;42608;52.776;6.968;2022-10-24T04:57:14;15.30;99.90
56725;DHT22;42608;52.776;6.968;2022-10-24T04:59:40;15.30;99.90
56725;DHT22;42608;52.776;6.968;2022-10-24T05:02:06;15.30;99.90
56725;DHT22;42608;52.776;6.968;2022-10-24T05:04:31;15.30;99.90
56725;DHT22;42608;52.776;6.968;2022-10-24T05:06:57;15.30;99.90
56725;DHT22;42608;52.776;6.968;2022-10-24T05:09:22;15.20;99.90
56725;DHT22;42608;52.776;6.968;2022-10-24T05:11:48;15.30;99.90
56725;DHT22;42608;52.776;6.968;2022-10-24T05:14:13;15.20;99.90
56725;DHT22;42608;52.776;6.968;2022-10-24T05:16:39;15.20;99.90
56725;DHT22;42608;52.776;6.968;2022-10-24T05:19:05;15.20;99.90
56725;DHT22;42608;52.776;6.968;2022-10-24T05:21:30;15.20;99.90
56725;DHT22;42608;52.776;6.968;2022-10-24T05:23:57;15.20;99.90
56725;DHT22;42608;52.776;6.968;2022-10-24T05:26:23;15.10;99.90
56725;DHT22;42608;52.776;6.968;2022-10-24T05:28:48;15.10;99.90
56725;DHT22;42608;52.776;6.968;2022-10-24T05:31:14;15.10;99.90
56725;DHT22;42608;52.776;6.968;2022-10-24T05:33:39;15.10;99.90
56725;DHT22;42608;52.776;6.968;2022-10-24T05:36:05;15.10;99.90
56725;DHT22;42608;52.776;6.968;2022-10-24T05:38:30;15.10;99.90
56725;DHT22;42608;52.776;6.968;2022-10-24T05:40:56;15.10;99.90
56725;DHT22;42608;52.776;6.968;2022-10-24T05:43:22;15.10;99.90
56725;DHT22;42608;52.776;6.968;2022-10-24T05:45:47;15.10;99.90
56725;DHT22;42608;52.776;6.968;2022-10-24T05:48:13;15.00;99.90
56725;DHT22;42608;52.776;6.968;2022-10-24T05:50:39;15.00;99.90
56725;DHT22;42608;52.776;6.968;2022-10-24T05:53:04;15.00;99.90
56725;DHT22;42608;52.776;6.968;2022-10-24T05:55:30;15.00;99.90
56725;DHT22;42608;52.776;6.968;2022-10-24T05:57:56;15.00;99.90
56725;DHT22;42608;52.776;6.968;2022-10-24T06:00:21;15.00;99.90
56725;DHT22;42608;52.776;6.968;2022-10-24T06:02:47;15.00;99.90
56725;DHT22;42608;52.776;6.968;2022-10-24T06:05:13;15.00;99.90
56725;DHT22;42608;52.776;6.968;2022-10-24T06:07:38;15.00;99.90
56725;DHT22;42608;52.776;6.968;2022-10-24T06:10:06;14.90;99.90
56725;DHT22;42608;52.776;6.968;2022-10-24T06:12:32;14.90;99.90
56725;DHT22;42608;52.776;6.968;2022-10-24T06:14:58;14.90;99.90
56725;DHT22;42608;52.776;6.968;2022-10-24T06:17:24;14.90;99.90
56725;DHT22;42608;52.776;6.968;2022-10-24T06:19:49;14.90;99.90
56725;DHT22;42608;52.776;6.968;2022-10-24T06:22:15;15.00;99.90
56725;DHT22;42608;52.776;6.968;2022-10-24T06:24:41;15.00;99.90
56725;DHT22;42608;52.776;6.968;2022-10-24T06:27:07;15.00;99.90
56725;DHT22;42608;52.776;6.968;2022-10-24T06:29:32;15.10;99.90
56725;DHT22;42608;52.776;6.968;2022-10-24T06:31:58;15.10;99.90
56725;DHT22;42608;52.776;6.968;2022-10-24T06:34:24;15.10;99.90
56725;DHT22;42608;52.776;6.968;2022-10-24T06:36:49;15.10;99.90
56725;DHT22;42608;52.776;6.968;2022-10-24T06:39:15;15.20;99.90
56725;DHT22;42608;52.776;6.968;2022-10-24T06:41:41;15.20;99.90
56725;DHT22;42608;52.776;6.968;2022-10-24T06:44:06;15.10;99.90
56725;DHT22;42608;52.776;6.968;2022-10-24T06:46:32;15.20;99.90
56725;DHT22;42608;52.776;6.968;2022-10-24T06:48:57;15.10;99.90
56725;DHT22;42608;52.776;6.968;2022-10-24T06:51:23;15.20;99.90
56725;DHT22;42608;52.776;6.968;2022-10-24T06:53:48;15.20;99.90
56725;DHT22;42608;52.776;6.968;2022-10-24T06:56:14;15.20;99.90
56725;DHT22;42608;52.776;6.968;2022-10-24T06:58:42;15.20;99.90
56725;DHT22;42608;52.776;6.968;2022-10-24T07:01:08;15.20;99.90
56725;DHT22;42608;52.776;6.968;2022-10-24T07:03:34;15.20;99.90
56725;DHT22;42608;52.776;6.968;2022-10-24T07:08:56;15.20;99.90
56725;DHT22;42608;52.776;6.968;2022-10-24T07:11:22;15.30;99.90
56725;DHT22;42608;52.776;6.968;2022-10-24T07:13:47;15.20;99.90
56725;DHT22;42608;52.776;6.968;2022-10-24T07:16:13;15.20;99.90
56725;DHT22;42608;52.776;6.968;2022-10-24T07:18:39;15.30;99.90
56725;DHT22;42608;52.776;6.968;2022-10-24T07:21:06;15.20;99.90
56725;DHT22;42608;52.776;6.968;2022-10-24T07:23:32;15.30;99.90
56725;DHT22;42608;52.776;6.968;2022-10-24T07:26:02;15.30;99.90
56725;DHT22;42608;52.776;6.968;2022-10-24T07:28:27;15.30;99.90
56725;DHT22;42608;52.776;6.968;2022-10-24T07:30:53;15.30;99.90
56725;DHT22;42608;52.776;6.968;2022-10-24T07:33:19;15.30;99.90
56725;DHT22;42608;52.776;6.968;2022-10-24T07:35:44;15.40;99.90
56725;DHT22;42608;52.776;6.968;2022-10-24T07:38:10;15.50;99.90
56725;DHT22;42608;52.776;6.968;2022-10-24T07:40:35;15.50;99.90
56725;DHT22;42608;52.776;6.968;2022-10-24T07:43:01;15.50;99.90
56725;DHT22;42608;52.776;6.968;2022-10-24T07:45:26;15.60;99.90
56725;DHT22;42608;52.776;6.968;2022-10-24T07:47:54;15.60;99.90
56725;DHT22;42608;52.776;6.968;2022-10-24T07:50:19;15.70;99.90
56725;DHT22;42608;52.776;6.968;2022-10-24T07:52:45;15.80;99.90
56725;DHT22;42608;52.776;6.968;2022-10-24T07:55:10;15.80;99.90
56725;DHT22;42608;52.776;6.968;2022-10-24T07:57:36;15.80;99.90
56725;DHT22;42608;52.776;6.968;2022-10-24T08:00:03;15.90;99.90
56725;DHT22;42608;52.776;6.968;2022-10-24T08:02:29;15.90;99.90
56725;DHT22;42608;52.776;6.968;2022-10-24T08:04:54;15.90;99.90
56725;DHT22;42608;52.776;6.968;2022-10-24T08:07:20;16.00;99.90
56725;DHT22;42608;52.776;6.968;2022-10-24T08:09:46;16.00;99.90
56725;DHT22;42608;52.776;6.968;2022-10-24T08:12:11;16.00;99.90
56725;DHT22;42608;52.776;6.968;2022-10-24T08:14:38;16.00;99.90
56725;DHT22;42608;52.776;6.968;2022-10-24T08:17:03;16.00;99.90
56725;DHT22;42608;52.776;6.968;2022-10-24T08:19:29;16.00;99.90
56725;DHT22;42608;52.776;6.968;2022-10-24T08:21:55;16.00;99.90
56725;DHT22;42608;52.776;6.968;2022-10-24T08:24:21;16.10;99.90
56725;DHT22;42608;52.776;6.968;2022-10-24T08:26:46;16.10;99.90
56725;DHT22;42608;52.776;6.968;2022-10-24T08:29:13;16.10;99.90
56725;DHT22;42608;52.776;6.968;2022-10-24T08:31:39;16.10;99.90
56725;DHT22;42608;52.776;6.968;2022-10-24T08:34:05;16.10;99.90
56725;DHT22;42608;52.776;6.968;2022-10-24T08:36:32;16.20;99.90
56725;DHT22;42608;52.776;6.968;2022-10-24T08:38:58;16.20;99.90
56725;DHT22;42608;52.776;6.968;2022-10-24T08:43:53;16.30;99.90
56725;DHT22;42608;52.776;6.968;2022-10-24T08:46:22;16.40;99.90
56725;DHT22;42608;52.776;6.968;2022-10-24T08:48:54;16.50;99.90
56725;DHT22;42608;52.776;6.968;2022-10-24T08:51:35;16.50;99.90
56725;DHT22;42608;52.776;6.968;2022-10-24T08:54:02;16.50;99.90
56725;DHT22;42608;52.776;6.968;2022-10-24T08:56:31;16.60;99.90
56725;DHT22;42608;52.776;6.968;2022-10-24T08:58:57;16.60;99.90
56725;DHT22;42608;52.776;6.968;2022-10-24T09:01:28;16.60;99.90
56725;DHT22;42608;52.776;6.968;2022-10-24T09:03:55;16.50;99.90
56725;DHT22;42608;52.776;6.968;2022-10-24T09:06:24;16.50;99.90
56725;DHT22;42608;52.776;6.968;2022-10-24T09:08:54;16.50;99.90
56725;DHT22;42608;52.776;6.968;2022-10-24T09:11:25;16.60;99.90
56725;DHT22;42608;52.776;6.968;2022-10-24T09:13:54;16.60;99.90
56725;DHT22;42608;52.776;6.968;2022-10-24T09:16:20;16.60;99.90
56725;DHT22;42608;52.776;6.968;2022-10-24T09:18:47;16.70;99.90
56725;DHT22;42608;52.776;6.968;2022-10-24T09:21:14;16.80;99.90
56725;DHT22;42608;52.776;6.968;2022-10-24T09:23:40;16.80;99.90
56725;DHT22;42608;52.776;6.968;2022-10-24T09:26:07;16.80;99.90
56725;DHT22;42608;52.776;6.968;2022-10-24T09:28:33;16.80;99.90
56725;DHT22;42608;52.776;6.968;2022-10-24T09:33:55;16.80;99.90
56725;DHT22;42608;52.776;6.968;2022-10-24T09:36:27;16.80;99.90
56725;DHT22;42608;52.776;6.968;2022-10-24T09:38:53;16.90;99.90
56725;DHT22;42608;52.776;6.968;2022-10-24T09:41:23;16.90;99.90
56725;DHT22;42608;52.776;6.968;2022-10-24T09:43:50;16.90;99.90
56725;DHT22;42608;52.776;6.968;2022-10-24T09:46:21;17.00;99.90
56725;DHT22;42608;52.776;6.968;2022-10-24T09:48:58;17.00;99.90
56725;DHT22;42608;52.776;6.968;2022-10-24T09:51:31;17.00;99.90
56725;DHT22;42608;52.776;6.968;2022-10-24T09:56:32;17.00;99.90
56725;DHT22;42608;52.776;6.968;2022-10-24T09:59:07;17.10;99.90
56725;DHT22;42608;52.776;6.968;2022-10-24T10:01:40;17.10;99.90
56725;DHT22;42608;52.776;6.968;2022-10-24T10:04:10;17.10;99.90
56725;DHT22;42608;52.776;6.968;2022-10-24T10:06:42;17.10;99.90
56725;DHT22;42608;52.776;6.968;2022-10-24T10:09:11;17.10;99.90
56725;DHT22;42608;52.776;6.968;2022-10-24T10:11:37;17.10;99.90
56725;DHT22;42608;52.776;6.968;2022-10-24T10:14:02;17.10;99.90
56725;DHT22;42608;52.776;6.968;2022-10-24T10:16:29;17.00;99.90
56725;DHT22;42608;52.776;6.968;2022-10-24T10:19:14;17.00;99.90
56725;DHT22;42608;52.776;6.968;2022-10-24T10:26:57;16.90;99.90
56725;DHT22;42608;52.776;6.968;2022-10-24T10:29:23;16.80;99.90
56725;DHT22;42608;52.776;6.968;2022-10-24T10:31:49;16.80;99.90
56725;DHT22;42608;52.776;6.968;2022-10-24T10:39:57;16.60;99.90
56725;DHT22;42608;52.776;6.968;2022-10-24T10:50:04;16.40;99.90
56725;DHT22;42608;52.776;6.968;2022-10-24T10:52:48;16.20;99.90
56725;DHT22;42608;52.776;6.968;2022-10-24T10:55:17;16.10;99.90
56725;DHT22;42608;52.776;6.968;2022-10-24T10:57:48;16.00;99.90
56725;DHT22;42608;52.776;6.968;2022-10-24T11:00:20;15.80;99.90
56725;DHT22;42608;52.776;6.968;2022-10-24T11:05:40;15.70;99.90
56725;DHT22;42608;52.776;6.968;2022-10-24T11:08:28;15.80;99.90
56725;DHT22;42608;52.776;6.968;2022-10-24T11:10:58;15.80;99.90
56725;DHT22;42608;52.776;6.968;2022-10-24T11:13:33;15.80;99.90
56725;DHT22;42608;52.776;6.968;2022-10-24T11:16:01;15.90;99.90
56725;DHT22;42608;52.776;6.968;2022-10-24T11:18:35;15.90;99.90
56725;DHT22;42608;52.776;6.968;2022-10-24T11:21:04;16.00;99.90
56725;DHT22;42608;52.776;6.968;2022-10-24T11:23:33;16.00;99.90
56725;DHT22;42608;52.776;6.968;2022-10-24T11:28:34;16.00;99.90
56725;DHT22;42608;52.776;6.968;2022-10-24T11:31:15;16.10;99.90
56725;DHT22;42608;52.776;6.968;2022-10-24T11:33:52;16.10;99.90
56725;DHT22;42608;52.776;6.968;2022-10-24T11:38:57;16.20;99.90
56725;DHT22;42608;52.776;6.968;2022-10-24T11:43:57;16.20;99.90
56725;DHT22;42608;52.776;6.968;2022-10-24T11:46:27;16.30;99.90
56725;DHT22;42608;52.776;6.968;2022-10-24T11:48:56;16.30;99.90
56725;DHT22;42608;52.776;6.968;2022-10-24T11:51:45;16.40;99.90
56725;DHT22;42608;52.776;6.968;2022-10-24T11:54:16;16.40;99.90
56725;DHT22;42608;52.776;6.968;2022-10-24T11:56:47;16.40;99.90
56725;DHT22;42608;52.776;6.968;2022-10-24T11:59:18;16.50;99.90
56725;DHT22;42608;52.776;6.968;2022-10-24T12:15:27;16.60;99.90
56725;DHT22;42608;52.776;6.968;2022-10-24T12:20:10;16.60;99.90
56725;DHT22;42608;52.776;6.968;2022-10-24T12:22:39;16.60;99.90
56725;DHT22;42608;52.776;6.968;2022-10-24T12:27:51;16.70;99.90
56725;DHT22;42608;52.776;6.968;2022-10-24T12:30:19;16.70;99.90
56725;DHT22;42608;52.776;6.968;2022-10-24T12:32:51;16.70;99.90
56725;DHT22;42608;52.776;6.968;2022-10-24T12:36:00;16.70;99.90
56725;DHT22;42608;52.776;6.968;2022-10-24T12:38:18;16.70;99.90
56725;DHT22;42608;52.776;6.968;2022-10-24T12:41:02;16.70;99.90
56725;DHT22;42608;52.776;6.968;2022-10-24T12:48:40;16.70;99.90
56725;DHT22;42608;52.776;6.968;2022-10-24T12:56:25;16.60;99.90
56725;DHT22;42608;52.776;6.968;2022-10-24T13:06:21;16.70;99.90
56725;DHT22;42608;52.776;6.968;2022-10-24T13:11:24;16.70;99.90
56725;DHT22;42608;52.776;6.968;2022-10-24T13:14:39;16.70;99.90
56725;DHT22;42608;52.776;6.968;2022-10-24T13:19:19;16.70;99.90
56725;DHT22;42608;52.776;6.968;2022-10-24T13:21:53;16.70;99.90
56725;DHT22;42608;52.776;6.968;2022-10-24T13:26:49;16.70;99.90
56725;DHT22;42608;52.776;6.968;2022-10-24T13:31:46;16.60;99.90
56725;DHT22;42608;52.776;6.968;2022-10-24T13:34:13;16.60;99.90
56725;DHT22;42608;52.776;6.968;2022-10-24T13:36:39;16.40;99.90
56725;DHT22;42608;52.776;6.968;2022-10-24T13:39:09;16.30;99.90
56725;DHT22;42608;52.776;6.968;2022-10-24T13:41:36;16.00;99.90
56725;DHT22;42608;52.776;6.968;2022-10-24T13:44:09;15.80;99.90
56725;DHT22;42608;52.776;6.968;2022-10-24T13:46:43;15.70;99.90
56725;DHT22;42608;52.776;6.968;2022-10-24T13:49:18;15.60;99.90
56725;DHT22;42608;52.776;6.968;2022-10-24T13:51:47;15.50;99.90
56725;DHT22;42608;52.776;6.968;2022-10-24T13:54:17;15.50;99.90
56725;DHT22;42608;52.776;6.968;2022-10-24T13:56:44;15.50;99.90
56725;DHT22;42608;52.776;6.968;2022-10-24T14:01:52;15.40;99.90
56725;DHT22;42608;52.776;6.968;2022-10-24T14:04:17;15.30;99.90
56725;DHT22;42608;52.776;6.968;2022-10-24T14:06:43;15.30;99.90
56725;DHT22;42608;52.776;6.968;2022-10-24T14:09:08;15.20;99.90
56725;DHT22;42608;52.776;6.968;2022-10-24T14:11:42;15.20;99.90
56725;DHT22;42608;52.776;6.968;2022-10-24T14:17:20;15.20;99.90
56725;DHT22;42608;52.776;6.968;2022-10-24T14:19:59;15.20;99.90
56725;DHT22;42608;52.776;6.968;2022-10-24T14:22:27;15.20;99.90
56725;DHT22;42608;52.776;6.968;2022-10-24T14:24:53;15.30;99.90
56725;DHT22;42608;52.776;6.968;2022-10-24T14:27:19;15.30;99.90
56725;DHT22;42608;52.776;6.968;2022-10-24T14:29:55;15.30;99.90
56725;DHT22;42608;52.776;6.968;2022-10-24T14:32:21;15.30;99.90
56725;DHT22;42608;52.776;6.968;2022-10-24T14:34:48;15.30;99.90
56725;DHT22;42608;52.776;6.968;2022-10-24T14:37:14;15.20;99.90
56725;DHT22;42608;52.776;6.968;2022-10-24T14:39:41;15.20;99.90
56725;DHT22;42608;52.776;6.968;2022-10-24T14:42:14;15.20;99.90
56725;DHT22;42608;52.776;6.968;2022-10-24T14:44:41;15.20;99.90
56725;DHT22;42608;52.776;6.968;2022-10-24T14:49:41;15.10;99.90
56725;DHT22;42608;52.776;6.968;2022-10-24T14:54:40;15.20;99.90
56725;DHT22;42608;52.776;6.968;2022-10-24T14:57:13;15.20;99.90
56725;DHT22;42608;52.776;6.968;2022-10-24T14:59:42;15.20;99.90
56725;DHT22;42608;52.776;6.968;2022-10-24T15:04:43;15.20;99.90
56725;DHT22;42608;52.776;6.968;2022-10-24T15:07:15;15.20;99.90
56725;DHT22;42608;52.776;6.968;2022-10-24T15:12:24;15.20;99.90
56725;DHT22;42608;52.776;6.968;2022-10-24T15:14:50;15.20;99.90
56725;DHT22;42608;52.776;6.968;2022-10-24T15:19:47;15.30;99.90
56725;DHT22;42608;52.776;6.968;2022-10-24T15:25:04;15.20;99.90
56725;DHT22;42608;52.776;6.968;2022-10-24T15:27:37;15.20;99.90
56725;DHT22;42608;52.776;6.968;2022-10-24T15:30:03;15.10;99.90
56725;DHT22;42608;52.776;6.968;2022-10-24T15:32:29;15.10;99.90
56725;DHT22;42608;52.776;6.968;2022-10-24T15:34:55;15.10;99.90
56725;DHT22;42608;52.776;6.968;2022-10-24T15:37:21;15.00;99.90
56725;DHT22;42608;52.776;6.968;2022-10-24T15:39:48;15.00;99.90
56725;DHT22;42608;52.776;6.968;2022-10-24T15:42:13;15.00;99.90
56725;DHT22;42608;52.776;6.968;2022-10-24T15:44:39;14.90;99.90
56725;DHT22;42608;52.776;6.968;2022-10-24T15:47:05;14.90;99.90
56725;DHT22;42608;52.776;6.968;2022-10-24T15:49:32;14.80;99.90
56725;DHT22;42608;52.776;6.968;2022-10-24T15:51:58;14.80;99.90
56725;DHT22;42608;52.776;6.968;2022-10-24T15:54:24;14.80;99.90
56725;DHT22;42608;52.776;6.968;2022-10-24T15:56:52;14.80;99.90
56725;DHT22;42608;52.776;6.968;2022-10-24T15:59:17;14.70;99.90
56725;DHT22;42608;52.776;6.968;2022-10-24T16:01:50;14.70;99.90
56725;DHT22;42608;52.776;6.968;2022-10-24T16:04:17;14.70;99.90
56725;DHT22;42608;52.776;6.968;2022-10-24T16:06:42;14.70;99.90
56725;DHT22;42608;52.776;6.968;2022-10-24T16:09:15;14.70;99.90
56725;DHT22;42608;52.776;6.968;2022-10-24T16:11:41;14.70;99.90
56725;DHT22;42608;52.776;6.968;2022-10-24T16:14:08;14.70;99.90
56725;DHT22;42608;52.776;6.968;2022-10-24T16:16:36;14.70;99.90
56725;DHT22;42608;52.776;6.968;2022-10-24T16:19:01;14.70;99.90
56725;DHT22;42608;52.776;6.968;2022-10-24T16:21:27;14.70;99.90
56725;DHT22;42608;52.776;6.968;2022-10-24T16:23:52;14.70;99.90
56725;DHT22;42608;52.776;6.968;2022-10-24T16:26:19;14.70;99.90
56725;DHT22;42608;52.776;6.968;2022-10-24T16:28:44;14.70;99.90
56725;DHT22;42608;52.776;6.968;2022-10-24T16:31:10;14.70;99.90
56725;DHT22;42608;52.776;6.968;2022-10-24T16:33:36;14.70;99.90
56725;DHT22;42608;52.776;6.968;2022-10-24T16:36:02;14.70;99.90
56725;DHT22;42608;52.776;6.968;2022-10-24T16:38:27;14.70;99.90
56725;DHT22;42608;52.776;6.968;2022-10-24T16:40:55;14.80;99.90
56725;DHT22;42608;52.776;6.968;2022-10-24T16:43:22;14.70;99.90
56725;DHT22;42608;52.776;6.968;2022-10-24T16:45:57;14.70;99.90
56725;DHT22;42608;52.776;6.968;2022-10-24T16:48:23;14.70;99.90
56725;DHT22;42608;52.776;6.968;2022-10-24T16:50:49;14.70;99.90
56725;DHT22;42608;52.776;6.968;2022-10-24T16:53:15;14.70;99.90
56725;DHT22;42608;52.776;6.968;2022-10-24T16:55:52;14.70;99.90
56725;DHT22;42608;52.776;6.968;2022-10-24T16:58:18;14.70;99.90
56725;DHT22;42608;52.776;6.968;2022-10-24T17:00:44;14.70;99.90
56725;DHT22;42608;52.776;6.968;2022-10-24T17:03:10;14.60;99.90
56725;DHT22;42608;52.776;6.968;2022-10-24T17:05:36;14.60;99.90
56725;DHT22;42608;52.776;6.968;2022-10-24T17:08:02;14.60;99.90
56725;DHT22;42608;52.776;6.968;2022-10-24T17:10:27;14.60;99.90
56725;DHT22;42608;52.776;6.968;2022-10-24T17:12:53;14.60;99.90
56725;DHT22;42608;52.776;6.968;2022-10-24T17:15:19;14.60;99.90
56725;DHT22;42608;52.776;6.968;2022-10-24T17:17:45;14.50;99.90
56725;DHT22;42608;52.776;6.968;2022-10-24T17:20:11;14.50;99.90
56725;DHT22;42608;52.776;6.968;2022-10-24T17:22:37;14.50;99.90
56725;DHT22;42608;52.776;6.968;2022-10-24T17:25:04;14.50;99.90
56725;DHT22;42608;52.776;6.968;2022-10-24T17:27:29;14.40;99.90
56725;DHT22;42608;52.776;6.968;2022-10-24T17:29:55;14.40;99.90
56725;DHT22;42608;52.776;6.968;2022-10-24T17:32:21;14.40;99.90
56725;DHT22;42608;52.776;6.968;2022-10-24T17:34:47;14.40;99.90
56725;DHT22;42608;52.776;6.968;2022-10-24T17:39:49;14.40;99.90
56725;DHT22;42608;52.776;6.968;2022-10-24T17:42:15;14.30;99.90